sensor_id;sensor_type;location;lat;lon;timestamp;P1;durP1;ratioP1;P2;durP2;ratioP2
69795;SDS011;57073;45.650;9.612;2023-08-06T00:00:47;3.07;;;1.90;;
69795;SDS011;57073;45.650;9.612;2023-08-06T00:05:47;2.97;;;2.00;;
69795;SDS011;57073;45.650;9.612;2023-08-06T00:10:48;4.40;;;2.03;;
69795;SDS011;57073;45.650;9.612;2023-08-06T00:15:48;2.67;;;1.92;;
69795;SDS011;57073;45.650;9.612;2023-08-06T00:20:49;3.93;;;2.13;;
69795;SDS011;57073;45.650;9.612;2023-08-06T00:25:49;2.93;;;1.87;;
69795;SDS011;57073;45.650;9.612;2023-08-06T00:30:53;3.53;;;2.00;;
69795;SDS011;57073;45.650;9.612;2023-08-06T00:35:54;4.80;;;2.08;;
69795;SDS011;57073;45.650;9.612;2023-08-06T00:40:54;2.33;;;1.93;;
69795;SDS011;57073;45.650;9.612;2023-08-06T00:45:55;2.97;;;1.97;;
69795;SDS011;57073;45.650;9.612;2023-08-06T00:50:55;3.37;;;2.20;;
69795;SDS011;57073;45.650;9.612;2023-08-06T00:55:56;2.77;;;2.00;;
69795;SDS011;57073;45.650;9.612;2023-08-06T01:00:57;3.40;;;1.90;;
69795;SDS011;57073;45.650;9.612;2023-08-06T01:05:58;3.80;;;2.10;;
69795;SDS011;57073;45.650;9.612;2023-08-06T01:16:17;3.53;;;1.90;;
69795;SDS011;57073;45.650;9.612;2023-08-06T01:21:19;4.00;;;1.60;;
69795;SDS011;57073;45.650;9.612;2023-08-06T01:31:57;3.35;;;1.90;;
69795;SDS011;57073;45.650;9.612;2023-08-06T01:36:59;4.35;;;2.00;;
69795;SDS011;57073;45.650;9.612;2023-08-06T01:42:01;3.10;;;2.10;;
69795;SDS011;57073;45.650;9.612;2023-08-06T01:47:01;10.80;;;2.00;;
69795;SDS011;57073;45.650;9.612;2023-08-06T01:52:01;4.17;;;2.00;;
69795;SDS011;57073;45.650;9.612;2023-08-06T01:57:02;4.30;;;1.90;;
69795;SDS011;57073;45.650;9.612;2023-08-06T02:02:02;4.27;;;1.73;;
69795;SDS011;57073;45.650;9.612;2023-08-06T02:07:03;3.93;;;2.00;;
69795;SDS011;57073;45.650;9.612;2023-08-06T02:12:04;2.60;;;2.10;;
69795;SDS011;57073;45.650;9.612;2023-08-06T02:17:04;3.85;;;2.28;;
69795;SDS011;57073;45.650;9.612;2023-08-06T02:22:05;2.97;;;2.20;;
69795;SDS011;57073;45.650;9.612;2023-08-06T02:27:05;2.83;;;1.80;;
69795;SDS011;57073;45.650;9.612;2023-08-06T02:32:06;3.07;;;1.90;;
69795;SDS011;57073;45.650;9.612;2023-08-06T02:37:07;4.10;;;2.10;;
69795;SDS011;57073;45.650;9.612;2023-08-06T02:42:07;2.87;;;1.80;;
69795;SDS011;57073;45.650;9.612;2023-08-06T02:47:08;2.27;;;1.80;;
69795;SDS011;57073;45.650;9.612;2023-08-06T02:52:08;2.30;;;1.80;;
69795;SDS011;57073;45.650;9.612;2023-08-06T02:57:08;5.10;;;1.70;;
69795;SDS011;57073;45.650;9.612;2023-08-06T03:02:09;3.00;;;1.90;;
69795;SDS011;57073;45.650;9.612;2023-08-06T03:07:09;3.53;;;1.90;;
69795;SDS011;57073;45.650;9.612;2023-08-06T03:12:09;3.50;;;1.70;;
69795;SDS011;57073;45.650;9.612;2023-08-06T03:17:10;1.67;;;1.57;;
69795;SDS011;57073;45.650;9.612;2023-08-06T03:22:10;5.13;;;1.67;;
69795;SDS011;57073;45.650;9.612;2023-08-06T03:27:10;2.57;;;1.60;;
69795;SDS011;57073;45.650;9.612;2023-08-06T03:32:11;2.07;;;1.43;;
69795;SDS011;57073;45.650;9.612;2023-08-06T03:37:11;3.60;;;1.63;;
69795;SDS011;57073;45.650;9.612;2023-08-06T03:42:11;2.50;;;1.70;;
69795;SDS011;57073;45.650;9.612;2023-08-06T03:47:12;3.53;;;1.50;;
69795;SDS011;57073;45.650;9.612;2023-08-06T03:52:12;2.47;;;1.63;;
69795;SDS011;57073;45.650;9.612;2023-08-06T03:57:12;3.20;;;1.77;;
69795;SDS011;57073;45.650;9.612;2023-08-06T04:02:13;1.80;;;1.60;;
69795;SDS011;57073;45.650;9.612;2023-08-06T04:07:13;3.63;;;1.67;;
69795;SDS011;57073;45.650;9.612;2023-08-06T04:12:13;2.47;;;1.50;;
69795;SDS011;57073;45.650;9.612;2023-08-06T04:17:14;2.53;;;1.73;;
69795;SDS011;57073;45.650;9.612;2023-08-06T04:22:14;2.27;;;1.33;;
69795;SDS011;57073;45.650;9.612;2023-08-06T04:27:15;3.20;;;1.40;;
69795;SDS011;57073;45.650;9.612;2023-08-06T04:32:16;1.67;;;1.25;;
69795;SDS011;57073;45.650;9.612;2023-08-06T04:37:17;1.73;;;1.17;;
69795;SDS011;57073;45.650;9.612;2023-08-06T04:42:17;1.37;;;1.00;;
69795;SDS011;57073;45.650;9.612;2023-08-06T04:47:17;1.53;;;1.20;;
69795;SDS011;57073;45.650;9.612;2023-08-06T04:52:18;2.37;;;1.20;;
69795;SDS011;57073;45.650;9.612;2023-08-06T04:57:18;2.27;;;1.30;;
69795;SDS011;57073;45.650;9.612;2023-08-06T05:02:20;3.70;;;1.13;;
69795;SDS011;57073;45.650;9.612;2023-08-06T05:07:20;1.53;;;1.10;;
69795;SDS011;57073;45.650;9.612;2023-08-06T05:12:20;1.83;;;1.17;;
69795;SDS011;57073;45.650;9.612;2023-08-06T05:17:21;2.43;;;1.40;;
69795;SDS011;57073;45.650;9.612;2023-08-06T05:22:23;2.58;;;1.20;;
69795;SDS011;57073;45.650;9.612;2023-08-06T05:27:23;3.43;;;1.10;;
69795;SDS011;57073;45.650;9.612;2023-08-06T05:32:23;2.47;;;1.10;;
69795;SDS011;57073;45.650;9.612;2023-08-06T05:37:24;3.23;;;1.10;;
69795;SDS011;57073;45.650;9.612;2023-08-06T05:42:24;3.53;;;0.90;;
69795;SDS011;57073;45.650;9.612;2023-08-06T05:47:24;1.30;;;0.77;;
69795;SDS011;57073;45.650;9.612;2023-08-06T05:52:25;1.50;;;0.90;;
69795;SDS011;57073;45.650;9.612;2023-08-06T05:57:25;1.03;;;0.90;;
69795;SDS011;57073;45.650;9.612;2023-08-06T06:02:25;3.63;;;1.07;;
69795;SDS011;57073;45.650;9.612;2023-08-06T06:07:26;1.60;;;0.90;;
69795;SDS011;57073;45.650;9.612;2023-08-06T06:12:26;4.67;;;1.10;;
69795;SDS011;57073;45.650;9.612;2023-08-06T06:17:27;2.13;;;1.00;;
69795;SDS011;57073;45.650;9.612;2023-08-06T06:22:27;2.23;;;1.40;;
69795;SDS011;57073;45.650;9.612;2023-08-06T06:27:28;2.80;;;1.20;;
69795;SDS011;57073;45.650;9.612;2023-08-06T06:32:29;2.70;;;1.30;;
69795;SDS011;57073;45.650;9.612;2023-08-06T06:37:30;1.97;;;1.20;;
69795;SDS011;57073;45.650;9.612;2023-08-06T06:42:31;3.27;;;1.60;;
69795;SDS011;57073;45.650;9.612;2023-08-06T06:47:31;3.53;;;2.40;;
69795;SDS011;57073;45.650;9.612;2023-08-06T06:52:31;3.47;;;1.80;;
69795;SDS011;57073;45.650;9.612;2023-08-06T06:57:32;1.57;;;1.30;;
69795;SDS011;57073;45.650;9.612;2023-08-06T07:02:32;1.73;;;1.10;;
69795;SDS011;57073;45.650;9.612;2023-08-06T07:07:32;2.53;;;1.10;;
69795;SDS011;57073;45.650;9.612;2023-08-06T07:12:33;1.97;;;1.00;;
69795;SDS011;57073;45.650;9.612;2023-08-06T07:17:33;3.22;;;1.75;;
69795;SDS011;57073;45.650;9.612;2023-08-06T07:22:34;5.53;;;2.23;;
69795;SDS011;57073;45.650;9.612;2023-08-06T07:27:34;1.10;;;1.00;;
69795;SDS011;57073;45.650;9.612;2023-08-06T07:32:35;1.10;;;0.97;;
69795;SDS011;57073;45.650;9.612;2023-08-06T07:37:35;2.83;;;0.90;;
69795;SDS011;57073;45.650;9.612;2023-08-06T07:42:35;2.53;;;1.03;;
69795;SDS011;57073;45.650;9.612;2023-08-06T07:47:36;2.90;;;1.00;;
69795;SDS011;57073;45.650;9.612;2023-08-06T07:52:36;1.57;;;1.10;;
69795;SDS011;57073;45.650;9.612;2023-08-06T07:57:36;1.97;;;1.40;;
69795;SDS011;57073;45.650;9.612;2023-08-06T08:02:38;3.37;;;1.30;;
69795;SDS011;57073;45.650;9.612;2023-08-06T08:07:38;2.30;;;1.13;;
69795;SDS011;57073;45.650;9.612;2023-08-06T08:12:38;5.10;;;1.20;;
69795;SDS011;57073;45.650;9.612;2023-08-06T08:17:39;5.17;;;1.33;;
69795;SDS011;57073;45.650;9.612;2023-08-06T08:22:39;3.57;;;1.57;;
69795;SDS011;57073;45.650;9.612;2023-08-06T08:27:39;1.83;;;1.27;;
69795;SDS011;57073;45.650;9.612;2023-08-06T08:32:40;1.93;;;0.70;;
69795;SDS011;57073;45.650;9.612;2023-08-06T08:37:40;1.80;;;1.10;;
69795;SDS011;57073;45.650;9.612;2023-08-06T08:42:41;1.20;;;0.90;;
69795;SDS011;57073;45.650;9.612;2023-08-06T08:47:42;0.90;;;0.77;;
69795;SDS011;57073;45.650;9.612;2023-08-06T08:52:43;0.77;;;0.67;;
69795;SDS011;57073;45.650;9.612;2023-08-06T08:57:45;2.85;;;0.98;;
69795;SDS011;57073;45.650;9.612;2023-08-06T09:02:46;1.00;;;0.90;;
69795;SDS011;57073;45.650;9.612;2023-08-06T09:07:47;1.05;;;0.95;;
69795;SDS011;57073;45.650;9.612;2023-08-06T09:12:49;5.53;;;3.50;;
69795;SDS011;57073;45.650;9.612;2023-08-06T09:17:54;1.40;;;1.10;;
69795;SDS011;57073;45.650;9.612;2023-08-06T09:22:54;1.00;;;0.80;;
69795;SDS011;57073;45.650;9.612;2023-08-06T09:27:55;1.83;;;0.90;;
69795;SDS011;57073;45.650;9.612;2023-08-06T09:32:55;6.00;;;5.40;;
69795;SDS011;57073;45.650;9.612;2023-08-06T09:37:56;13.43;;;11.83;;
69795;SDS011;57073;45.650;9.612;2023-08-06T09:43:07;20.03;;;18.20;;
69795;SDS011;57073;45.650;9.612;2023-08-06T09:48:08;5.95;;;5.45;;
69795;SDS011;57073;45.650;9.612;2023-08-06T09:53:09;8.20;;;5.30;;
69795;SDS011;57073;45.650;9.612;2023-08-06T09:58:10;3.42;;;2.20;;
69795;SDS011;57073;45.650;9.612;2023-08-06T10:03:10;1.30;;;1.20;;
69795;SDS011;57073;45.650;9.612;2023-08-06T10:08:10;1.80;;;0.90;;
69795;SDS011;57073;45.650;9.612;2023-08-06T10:13:11;5.30;;;4.27;;
69795;SDS011;57073;45.650;9.612;2023-08-06T10:18:13;11.63;;;6.97;;
69795;SDS011;57073;45.650;9.612;2023-08-06T10:23:18;9.98;;;7.40;;
69795;SDS011;57073;45.650;9.612;2023-08-06T10:28:20;10.45;;;6.75;;
69795;SDS011;57073;45.650;9.612;2023-08-06T10:33:21;6.40;;;5.50;;
69795;SDS011;57073;45.650;9.612;2023-08-06T10:38:22;50.47;;;27.90;;
69795;SDS011;57073;45.650;9.612;2023-08-06T10:43:28;31.08;;;21.20;;
69795;SDS011;57073;45.650;9.612;2023-08-06T10:48:39;21.52;;;14.23;;
69795;SDS011;57073;45.650;9.612;2023-08-06T10:53:46;3.70;;;2.90;;
69795;SDS011;57073;45.650;9.612;2023-08-06T10:58:48;2.80;;;2.05;;
69795;SDS011;57073;45.650;9.612;2023-08-06T11:03:50;2.80;;;1.40;;
69795;SDS011;57073;45.650;9.612;2023-08-06T11:08:53;2.53;;;2.20;;
69795;SDS011;57073;45.650;9.612;2023-08-06T11:13:54;3.20;;;2.65;;
69795;SDS011;57073;45.650;9.612;2023-08-06T11:18:54;3.40;;;3.00;;
69795;SDS011;57073;45.650;9.612;2023-08-06T11:23:56;5.78;;;4.35;;
69795;SDS011;57073;45.650;9.612;2023-08-06T11:28:57;2.87;;;2.53;;
69795;SDS011;57073;45.650;9.612;2023-08-06T11:33:57;1.60;;;1.43;;
69795;SDS011;57073;45.650;9.612;2023-08-06T11:39:01;1.13;;;0.90;;
69795;SDS011;57073;45.650;9.612;2023-08-06T11:44:04;1.42;;;0.52;;
69795;SDS011;57073;45.650;9.612;2023-08-06T11:49:04;0.73;;;0.60;;
69795;SDS011;57073;45.650;9.612;2023-08-06T11:54:04;1.13;;;0.70;;
69795;SDS011;57073;45.650;9.612;2023-08-06T11:59:07;1.13;;;0.93;;
69795;SDS011;57073;45.650;9.612;2023-08-06T12:04:08;0.77;;;0.60;;
69795;SDS011;57073;45.650;9.612;2023-08-06T12:09:08;1.75;;;1.20;;
69795;SDS011;57073;45.650;9.612;2023-08-06T12:14:10;1.07;;;0.70;;
69795;SDS011;57073;45.650;9.612;2023-08-06T12:19:10;0.97;;;0.73;;
69795;SDS011;57073;45.650;9.612;2023-08-06T12:24:10;0.93;;;0.70;;
69795;SDS011;57073;45.650;9.612;2023-08-06T12:29:11;1.23;;;0.60;;
69795;SDS011;57073;45.650;9.612;2023-08-06T12:34:12;1.70;;;0.50;;
69795;SDS011;57073;45.650;9.612;2023-08-06T12:39:12;1.27;;;0.70;;
69795;SDS011;57073;45.650;9.612;2023-08-06T12:44:13;0.73;;;0.50;;
69795;SDS011;57073;45.650;9.612;2023-08-06T12:49:13;1.17;;;0.60;;
69795;SDS011;57073;45.650;9.612;2023-08-06T12:54:13;2.10;;;1.70;;
69795;SDS011;57073;45.650;9.612;2023-08-06T12:59:14;1.00;;;0.90;;
69795;SDS011;57073;45.650;9.612;2023-08-06T13:04:16;1.13;;;0.52;;
69795;SDS011;57073;45.650;9.612;2023-08-06T13:09:16;1.03;;;0.60;;
69795;SDS011;57073;45.650;9.612;2023-08-06T13:14:17;0.50;;;0.40;;
69795;SDS011;57073;45.650;9.612;2023-08-06T13:19:17;1.43;;;0.37;;
69795;SDS011;57073;45.650;9.612;2023-08-06T13:24:18;0.87;;;0.40;;
69795;SDS011;57073;45.650;9.612;2023-08-06T13:29:19;0.50;;;0.30;;
69795;SDS011;57073;45.650;9.612;2023-08-06T13:34:19;0.60;;;0.30;;
69795;SDS011;57073;45.650;9.612;2023-08-06T13:39:20;0.50;;;0.30;;
69795;SDS011;57073;45.650;9.612;2023-08-06T13:44:20;0.40;;;0.30;;
69795;SDS011;57073;45.650;9.612;2023-08-06T13:49:21;0.60;;;0.30;;
69795;SDS011;57073;45.650;9.612;2023-08-06T13:54:21;0.60;;;0.20;;
69795;SDS011;57073;45.650;9.612;2023-08-06T13:59:22;0.50;;;0.25;;
69795;SDS011;57073;45.650;9.612;2023-08-06T14:04:24;1.37;;;0.20;;
69795;SDS011;57073;45.650;9.612;2023-08-06T14:09:24;0.67;;;0.30;;
69795;SDS011;57073;45.650;9.612;2023-08-06T14:14:25;0.70;;;0.30;;
69795;SDS011;57073;45.650;9.612;2023-08-06T14:19:26;0.80;;;0.30;;
69795;SDS011;57073;45.650;9.612;2023-08-06T14:24:26;0.63;;;0.40;;
69795;SDS011;57073;45.650;9.612;2023-08-06T14:29:27;0.93;;;0.43;;
69795;SDS011;57073;45.650;9.612;2023-08-06T14:34:27;0.67;;;0.47;;
69795;SDS011;57073;45.650;9.612;2023-08-06T14:39:27;0.50;;;0.30;;
69795;SDS011;57073;45.650;9.612;2023-08-06T14:44:28;0.50;;;0.40;;
69795;SDS011;57073;45.650;9.612;2023-08-06T14:49:28;0.93;;;0.37;;
69795;SDS011;57073;45.650;9.612;2023-08-06T14:54:29;0.57;;;0.30;;
69795;SDS011;57073;45.650;9.612;2023-08-06T14:59:29;1.37;;;0.20;;
69795;SDS011;57073;45.650;9.612;2023-08-06T15:04:30;0.95;;;0.40;;
69795;SDS011;57073;45.650;9.612;2023-08-06T15:09:30;0.60;;;0.40;;
69795;SDS011;57073;45.650;9.612;2023-08-06T15:14:31;1.47;;;0.33;;
69795;SDS011;57073;45.650;9.612;2023-08-06T15:19:31;0.53;;;0.30;;
69795;SDS011;57073;45.650;9.612;2023-08-06T15:24:31;1.17;;;0.30;;
69795;SDS011;57073;45.650;9.612;2023-08-06T15:29:32;0.50;;;0.30;;
69795;SDS011;57073;45.650;9.612;2023-08-06T15:34:32;0.53;;;0.33;;
69795;SDS011;57073;45.650;9.612;2023-08-06T15:39:33;0.87;;;0.50;;
69795;SDS011;57073;45.650;9.612;2023-08-06T15:44:33;0.70;;;0.40;;
69795;SDS011;57073;45.650;9.612;2023-08-06T15:49:34;2.47;;;0.77;;
69795;SDS011;57073;45.650;9.612;2023-08-06T15:54:35;0.90;;;0.60;;
69795;SDS011;57073;45.650;9.612;2023-08-06T15:59:35;1.03;;;0.70;;
69795;SDS011;57073;45.650;9.612;2023-08-06T16:04:36;0.77;;;0.30;;
69795;SDS011;57073;45.650;9.612;2023-08-06T16:09:36;0.30;;;0.20;;
69795;SDS011;57073;45.650;9.612;2023-08-06T16:14:36;0.20;;;0.10;;
69795;SDS011;57073;45.650;9.612;2023-08-06T16:19:37;0.50;;;0.30;;
69795;SDS011;57073;45.650;9.612;2023-08-06T16:24:37;0.93;;;0.30;;
69795;SDS011;57073;45.650;9.612;2023-08-06T16:29:38;0.47;;;0.30;;
69795;SDS011;57073;45.650;9.612;2023-08-06T16:34:39;0.73;;;0.30;;
69795;SDS011;57073;45.650;9.612;2023-08-06T16:39:39;0.40;;;0.23;;
69795;SDS011;57073;45.650;9.612;2023-08-06T16:44:39;0.53;;;0.30;;
69795;SDS011;57073;45.650;9.612;2023-08-06T16:49:40;0.50;;;0.40;;
69795;SDS011;57073;45.650;9.612;2023-08-06T16:54:41;2.37;;;1.50;;
69795;SDS011;57073;45.650;9.612;2023-08-06T16:59:41;0.40;;;0.30;;
69795;SDS011;57073;45.650;9.612;2023-08-06T17:04:43;0.70;;;0.40;;
69795;SDS011;57073;45.650;9.612;2023-08-06T17:09:44;0.73;;;0.40;;
69795;SDS011;57073;45.650;9.612;2023-08-06T17:14:45;0.77;;;0.33;;
69795;SDS011;57073;45.650;9.612;2023-08-06T17:19:46;1.40;;;0.50;;
69795;SDS011;57073;45.650;9.612;2023-08-06T17:24:46;0.73;;;0.40;;
69795;SDS011;57073;45.650;9.612;2023-08-06T17:29:46;0.90;;;0.70;;
69795;SDS011;57073;45.650;9.612;2023-08-06T17:34:47;0.73;;;0.40;;
69795;SDS011;57073;45.650;9.612;2023-08-06T17:39:47;0.70;;;0.40;;
69795;SDS011;57073;45.650;9.612;2023-08-06T17:44:48;0.60;;;0.47;;
69795;SDS011;57073;45.650;9.612;2023-08-06T17:49:48;1.27;;;0.50;;
69795;SDS011;57073;45.650;9.612;2023-08-06T17:54:49;1.93;;;0.50;;
69795;SDS011;57073;45.650;9.612;2023-08-06T17:59:49;1.70;;;1.00;;
69795;SDS011;57073;45.650;9.612;2023-08-06T18:04:50;2.45;;;1.80;;
69795;SDS011;57073;45.650;9.612;2023-08-06T18:09:50;3.33;;;2.17;;
69795;SDS011;57073;45.650;9.612;2023-08-06T18:14:50;4.27;;;2.63;;
69795;SDS011;57073;45.650;9.612;2023-08-06T18:19:51;4.50;;;3.10;;
69795;SDS011;57073;45.650;9.612;2023-08-06T18:24:51;2.27;;;1.40;;
69795;SDS011;57073;45.650;9.612;2023-08-06T18:29:52;0.83;;;0.60;;
69795;SDS011;57073;45.650;9.612;2023-08-06T18:34:52;1.30;;;0.63;;
69795;SDS011;57073;45.650;9.612;2023-08-06T18:39:55;2.92;;;1.65;;
69795;SDS011;57073;45.650;9.612;2023-08-06T18:45:01;4.57;;;2.13;;
69795;SDS011;57073;45.650;9.612;2023-08-06T18:50:02;2.00;;;1.02;;
69795;SDS011;57073;45.650;9.612;2023-08-06T18:55:02;1.17;;;0.70;;
69795;SDS011;57073;45.650;9.612;2023-08-06T19:00:03;2.63;;;1.50;;
69795;SDS011;57073;45.650;9.612;2023-08-06T19:05:05;1.85;;;0.88;;
69795;SDS011;57073;45.650;9.612;2023-08-06T19:10:06;1.57;;;0.50;;
69795;SDS011;57073;45.650;9.612;2023-08-06T19:15:06;0.60;;;0.38;;
69795;SDS011;57073;45.650;9.612;2023-08-06T19:20:07;0.70;;;0.40;;
69795;SDS011;57073;45.650;9.612;2023-08-06T19:25:08;0.80;;;0.30;;
69795;SDS011;57073;45.650;9.612;2023-08-06T19:30:09;0.83;;;0.80;;
69795;SDS011;57073;45.650;9.612;2023-08-06T19:35:09;0.88;;;0.50;;
69795;SDS011;57073;45.650;9.612;2023-08-06T19:40:10;1.23;;;0.60;;
69795;SDS011;57073;45.650;9.612;2023-08-06T19:45:13;0.88;;;0.63;;
69795;SDS011;57073;45.650;9.612;2023-08-06T19:50:14;3.20;;;1.97;;
69795;SDS011;57073;45.650;9.612;2023-08-06T19:55:14;3.17;;;2.20;;
69795;SDS011;57073;45.650;9.612;2023-08-06T20:00:15;1.47;;;0.80;;
69795;SDS011;57073;45.650;9.612;2023-08-06T20:05:16;0.93;;;0.60;;
69795;SDS011;57073;45.650;9.612;2023-08-06T20:10:17;1.40;;;0.50;;
69795;SDS011;57073;45.650;9.612;2023-08-06T20:15:17;0.80;;;0.57;;
69795;SDS011;57073;45.650;9.612;2023-08-06T20:20:17;0.90;;;0.50;;
69795;SDS011;57073;45.650;9.612;2023-08-06T20:25:18;1.37;;;0.80;;
69795;SDS011;57073;45.650;9.612;2023-08-06T20:30:18;1.17;;;0.70;;
69795;SDS011;57073;45.650;9.612;2023-08-06T20:35:19;3.53;;;2.40;;
69795;SDS011;57073;45.650;9.612;2023-08-06T20:40:19;4.30;;;2.20;;
69795;SDS011;57073;45.650;9.612;2023-08-06T20:45:19;3.83;;;2.40;;
69795;SDS011;57073;45.650;9.612;2023-08-06T20:50:20;8.20;;;4.00;;
69795;SDS011;57073;45.650;9.612;2023-08-06T20:55:24;3.97;;;2.07;;
69795;SDS011;57073;45.650;9.612;2023-08-06T21:00:26;1.50;;;0.80;;
69795;SDS011;57073;45.650;9.612;2023-08-06T21:05:27;1.93;;;1.20;;
69795;SDS011;57073;45.650;9.612;2023-08-06T21:10:29;1.20;;;0.50;;
69795;SDS011;57073;45.650;9.612;2023-08-06T21:15:29;0.70;;;0.50;;
69795;SDS011;57073;45.650;9.612;2023-08-06T21:20:29;0.53;;;0.30;;
69795;SDS011;57073;45.650;9.612;2023-08-06T21:25:30;1.03;;;0.60;;
69795;SDS011;57073;45.650;9.612;2023-08-06T21:30:30;0.50;;;0.40;;
69795;SDS011;57073;45.650;9.612;2023-08-06T21:35:31;0.55;;;0.30;;
69795;SDS011;57073;45.650;9.612;2023-08-06T21:40:33;0.77;;;0.50;;
69795;SDS011;57073;45.650;9.612;2023-08-06T21:45:34;1.60;;;1.00;;
69795;SDS011;57073;45.650;9.612;2023-08-06T21:50:35;1.63;;;0.45;;
69795;SDS011;57073;45.650;9.612;2023-08-06T21:55:36;1.37;;;0.90;;
69795;SDS011;57073;45.650;9.612;2023-08-06T22:00:36;1.75;;;0.90;;
69795;SDS011;57073;45.650;9.612;2023-08-06T22:05:37;3.70;;;1.60;;
69795;SDS011;57073;45.650;9.612;2023-08-06T22:10:37;1.40;;;0.60;;
69795;SDS011;57073;45.650;9.612;2023-08-06T22:15:38;1.47;;;0.80;;
69795;SDS011;57073;45.650;9.612;2023-08-06T22:20:38;4.67;;;1.40;;
69795;SDS011;57073;45.650;9.612;2023-08-06T22:25:38;0.80;;;0.50;;
69795;SDS011;57073;45.650;9.612;2023-08-06T22:30:39;1.30;;;0.80;;
69795;SDS011;57073;45.650;9.612;2023-08-06T22:35:39;5.23;;;1.23;;
69795;SDS011;57073;45.650;9.612;2023-08-06T22:40:40;1.00;;;0.23;;
69795;SDS011;57073;45.650;9.612;2023-08-06T22:45:40;0.87;;;0.50;;
69795;SDS011;57073;45.650;9.612;2023-08-06T22:50:40;0.70;;;0.30;;
69795;SDS011;57073;45.650;9.612;2023-08-06T22:55:41;0.70;;;0.32;;
69795;SDS011;57073;45.650;9.612;2023-08-06T23:00:42;0.83;;;0.47;;
69795;SDS011;57073;45.650;9.612;2023-08-06T23:05:42;1.20;;;0.60;;
69795;SDS011;57073;45.650;9.612;2023-08-06T23:10:42;1.07;;;0.30;;
69795;SDS011;57073;45.650;9.612;2023-08-06T23:15:43;2.60;;;0.87;;
69795;SDS011;57073;45.650;9.612;2023-08-06T23:20:43;1.07;;;0.60;;
69795;SDS011;57073;45.650;9.612;2023-08-06T23:25:44;4.03;;;2.90;;
69795;SDS011;57073;45.650;9.612;2023-08-06T23:30:44;1.97;;;1.03;;
69795;SDS011;57073;45.650;9.612;2023-08-06T23:35:50;2.45;;;0.90;;
69795;SDS011;57073;45.650;9.612;2023-08-06T23:40:51;0.60;;;0.37;;
69795;SDS011;57073;45.650;9.612;2023-08-06T23:45:51;0.70;;;0.30;;
69795;SDS011;57073;45.650;9.612;2023-08-06T23:50:56;0.22;;;0.00;;
69795;SDS011;57073;45.650;9.612;2023-08-06T23:55:56;0.30;;;0.10;;
